Time;durP1;ratioP1;P1;durP2;ratioP2;P2;SDS_P1;SDS_P2;PMS_P1;PMS_P2;Temp;Humidity;BMP_temperature;BMP_pressure;BME280_temperature;BME280_humidity;BME280_pressure;Samples;Min_cycle;Max_cycle;Signal;HPM_P1;HPM_P2
2022/05/08 00:00:53;;;;;;;;;;;;;;;16.23;100.00;98423.69;5080737;28;19952;-61
2022/05/08 00:03:21;;;;;;;;;;;;;;;16.27;100.00;98421.22;5069216;28;20007;-62
2022/05/08 00:05:47;;;;;;;;;;;;;;;16.45;100.00;98421.25;5077247;28;19925;-60
2022/05/08 00:08:13;;;;;;;;;;;;;;;16.54;100.00;98421.41;5080274;28;19974;-61
2022/05/08 00:10:40;;;;;;;;;;;;;;;16.60;100.00;98417.59;5080659;28;19924;-60
2022/05/08 00:13:06;;;;;;;;;;;;;;;16.64;100.00;98407.84;5081991;27;19988;-61
2022/05/08 00:15:32;;;;;;;;;;;;;;;16.64;100.00;98415.94;5077112;28;19921;-63
2022/05/08 00:17:59;;;;;;;;;;;;;;;16.67;100.00;98415.34;5078187;28;19924;-61
2022/05/08 00:20:26;;;;;;;;;;;;;;;16.67;100.00;98408.06;5079065;28;19925;-61
2022/05/08 00:22:53;;;;;;;;;;;;;;;16.69;100.00;98418.56;5080227;28;19988;-62
2022/05/08 00:25:20;;;;;;;;;;;;;;;16.67;100.00;98416.16;5077103;28;19924;-61
2022/05/08 00:27:46;;;;;;;;;;;;;;;16.60;100.00;98415.72;5059312;28;19925;-63
2022/05/08 00:30:13;;;;;;;;;;;;;;;16.47;100.00;98418.25;5080041;28;19996;-61
2022/05/08 00:32:40;;;;;;;;;;;;;;;16.26;100.00;98409.63;5080524;28;19945;-62
2022/05/08 00:35:08;;;;;;;;;;;;;;;16.33;100.00;98411.97;5077965;28;19939;-61
2022/05/08 00:37:36;;;;;;;;;;;;;;;16.20;100.00;98414.28;5058899;28;20373;-61
2022/05/08 00:40:02;;;;;;;;;;;;;;;16.36;100.00;98408.72;5078458;28;20195;-60
2022/05/08 00:42:29;;;;;;;;;;;;;;;16.37;100.00;98413.03;5083787;27;19927;-61
2022/05/08 00:44:55;;;;;;;;;;;;;;;16.44;100.00;98408.88;5079466;28;19924;-61
2022/05/08 00:47:21;;;;;;;;;;;;;;;16.34;100.00;98406.28;5076434;28;19924;-62
2022/05/08 00:49:49;;;;;;;;;;;;;;;16.29;100.00;98409.06;5076790;28;19924;-61
2022/05/08 00:52:16;;;;;;;;;;;;;;;16.29;100.00;98410.94;5079847;28;19930;-62
2022/05/08 00:54:44;;;;;;;;;;;;;;;16.15;100.00;98400.84;5079910;28;19996;-61
2022/05/08 00:57:11;;;;;;;;;;;;;;;15.85;100.00;98398.47;5077194;28;19956;-62
2022/05/08 00:59:37;;;;;;;;;;;;;;;15.92;100.00;98407.03;5076302;28;19928;-62
2022/05/08 01:02:04;;;;;;;;;;;;;;;15.48;100.00;98406.38;5077845;27;19995;-61
2022/05/08 01:04:30;;;;;;;;;;;;;;;15.24;100.00;98402.78;5062006;28;19924;-62
2022/05/08 01:06:57;;;;;;;;;;;;;;;15.42;100.00;98407.47;5078645;28;19920;-62
2022/05/08 01:09:23;;;;;;;;;;;;;;;15.49;100.00;98397.22;5076022;28;19929;-61
2022/05/08 01:11:51;;;;;;;;;;;;;;;15.74;100.00;98394.28;5078957;27;19992;-61
2022/05/08 01:14:18;;;;;;;;;;;;;;;15.91;100.00;98399.22;5068213;28;19983;-62
2022/05/08 01:16:44;;;;;;;;;;;;;;;16.01;100.00;98397.25;5076438;28;20662;-61
2022/05/08 01:19:11;;;;;;;;;;;;;;;16.02;100.00;98398.84;5078845;28;20916;-62
2022/05/08 01:21:41;;;;;;;;;;;;;;;15.75;100.00;98393.22;5079618;28;19935;-62
2022/05/08 01:24:08;;;;;;;;;;;;;;;15.93;100.00;98399.75;5077267;28;19921;-60
2022/05/08 01:26:34;;;;;;;;;;;;;;;16.03;100.00;98403.13;5075989;28;20005;-61
2022/05/08 01:29:01;;;;;;;;;;;;;;;15.99;100.00;98406.72;5077227;28;19931;-61
2022/05/08 01:31:27;;;;;;;;;;;;;;;15.93;100.00;98394.38;5079038;28;19929;-61
2022/05/08 01:33:53;;;;;;;;;;;;;;;16.11;100.00;98402.53;5079123;28;19950;-60
2022/05/08 01:36:20;;;;;;;;;;;;;;;16.22;100.00;98405.91;5075827;28;19925;-61
2022/05/08 01:38:47;;;;;;;;;;;;;;;16.24;100.00;98403.75;5075885;28;19984;-61
2022/05/08 01:41:14;;;;;;;;;;;;;;;16.23;100.00;98406.69;5078800;28;19992;-62
2022/05/08 01:43:41;;;;;;;;;;;;;;;16.24;100.00;98408.31;5083772;27;19925;-62
2022/05/08 01:46:08;;;;;;;;;;;;;;;16.24;100.00;98406.44;5078134;28;19921;-63
2022/05/08 01:48:33;;;;;;;;;;;;;;;16.28;100.00;98403.97;5061372;28;20016;-61
2022/05/08 01:51:00;;;;;;;;;;;;;;;16.28;100.00;98402.03;5077890;28;19932;-62
2022/05/08 01:53:27;;;;;;;;;;;;;;;16.32;100.00;98402.28;5057975;28;19920;-61
2022/05/08 01:55:56;;;;;;;;;;;;;;;16.18;100.00;98405.66;5076034;28;19971;-61
2022/05/08 01:58:24;;;;;;;;;;;;;;;16.22;100.00;98402.41;5079310;28;19931;-61
2022/05/08 02:00:50;;;;;;;;;;;;;;;16.26;100.00;98411.50;5079225;28;19931;-61
2022/05/08 02:03:18;;;;;;;;;;;;;;;16.26;100.00;98411.50;5067545;28;19924;-61
2022/05/08 02:05:44;;;;;;;;;;;;;;;16.19;100.00;98412.66;5075919;28;19921;-61
2022/05/08 02:08:11;;;;;;;;;;;;;;;16.23;100.00;98410.19;5078388;28;20524;-61
2022/05/08 02:10:38;;;;;;;;;;;;;;;16.26;100.00;98403.44;5079333;28;20599;-61
2022/05/08 02:13:07;;;;;;;;;;;;;;;16.30;100.00;98405.28;5081033;27;19927;-61
2022/05/08 02:15:33;;;;;;;;;;;;;;;16.34;100.00;98410.91;5075554;28;19925;-61
2022/05/08 02:18:00;;;;;;;;;;;;;;;16.27;100.00;98405.84;5076579;28;19985;-61
2022/05/08 02:20:26;;;;;;;;;;;;;;;16.01;100.00;98415.28;5078749;28;19931;-62
2022/05/08 02:22:53;;;;;;;;;;;;;;;16.03;100.00;98415.84;5078519;28;19931;-61
2022/05/08 02:25:19;;;;;;;;;;;;;;;15.78;100.00;98419.59;5075304;28;19999;-61
2022/05/08 02:27:49;;;;;;;;;;;;;;;15.86;100.00;98410.06;5075180;28;20039;-61
2022/05/08 02:30:17;;;;;;;;;;;;;;;15.92;100.00;98408.94;5078630;28;20411;-62
2022/05/08 02:32:44;;;;;;;;;;;;;;;16.00;100.00;98411.78;5078663;28;19964;-61
2022/05/08 02:35:11;;;;;;;;;;;;;;;16.03;100.00;98419.31;5076123;28;19924;-60
2022/05/08 02:37:37;;;;;;;;;;;;;;;16.10;100.00;98405.50;5075161;28;19921;-60
2022/05/08 02:40:04;;;;;;;;;;;;;;;16.13;100.00;98415.69;5076796;28;20000;-61
2022/05/08 02:42:30;;;;;;;;;;;;;;;16.06;100.00;98409.88;5082393;27;19925;-61
2022/05/08 02:44:57;;;;;;;;;;;;;;;15.91;100.00;98408.13;5081253;28;20007;-61
2022/05/08 02:47:24;;;;;;;;;;;;;;;16.00;100.00;98409.09;5078608;28;20019;-61
2022/05/08 02:49:51;;;;;;;;;;;;;;;16.01;100.00;98408.03;5078517;28;19956;-61
2022/05/08 02:52:18;;;;;;;;;;;;;;;16.04;100.00;98414.72;5070335;28;19921;-61
2022/05/08 02:54:45;;;;;;;;;;;;;;;16.05;100.00;98414.44;5078531;28;19996;-61
2022/05/08 02:59:55;;;;;;;;;;;;;;;16.07;100.00;98416.84;5081407;28;19920;-61
2022/05/08 03:02:21;;;;;;;;;;;;;;;16.10;100.00;98418.97;5078202;28;19977;-61
2022/05/08 03:04:49;;;;;;;;;;;;;;;15.98;100.00;98413.97;5078435;28;19927;-61
2022/05/08 03:07:15;;;;;;;;;;;;;;;15.92;100.00;98415.13;5081707;28;19931;-61
2022/05/08 03:09:42;;;;;;;;;;;;;;;15.94;100.00;98414.81;5081720;28;20020;-61
2022/05/08 03:12:09;;;;;;;;;;;;;;;15.94;100.00;98410.25;5084892;27;19983;-61
2022/05/08 03:14:39;;;;;;;;;;;;;;;15.97;100.00;98417.75;5080899;27;20387;-62
2022/05/08 03:17:06;;;;;;;;;;;;;;;15.97;100.00;98417.75;5079643;28;19928;-61
2022/05/08 03:19:32;;;;;;;;;;;;;;;15.99;100.00;98418.28;5078200;28;20153;-61
2022/05/08 03:22:00;;;;;;;;;;;;;;;15.96;100.00;98415.34;5079310;28;19925;-61
2022/05/08 03:24:28;;;;;;;;;;;;;;;15.99;100.00;98415.59;5081547;28;19987;-61
2022/05/08 03:26:54;;;;;;;;;;;;;;;16.00;100.00;98414.47;5081011;28;19953;-61
2022/05/08 03:29:20;;;;;;;;;;;;;;;15.98;100.00;98413.97;5077783;28;19964;-61
2022/05/08 03:31:47;;;;;;;;;;;;;;;16.00;100.00;98414.47;5078019;28;19928;-60
2022/05/08 03:34:13;;;;;;;;;;;;;;;15.93;100.00;98418.63;5080977;28;20076;-61
2022/05/08 03:36:39;;;;;;;;;;;;;;;15.94;100.00;98421.00;5081375;28;19971;-61
2022/05/08 03:39:07;;;;;;;;;;;;;;;15.97;100.00;98425.84;5079158;28;19946;-61
2022/05/08 03:41:33;;;;;;;;;;;;;;;15.97;100.00;98416.94;5077779;28;19952;-60
2022/05/08 03:44:00;;;;;;;;;;;;;;;15.98;100.00;98416.66;5082962;27;19984;-61
2022/05/08 03:46:26;;;;;;;;;;;;;;;15.89;100.00;98413.00;5081181;28;19995;-61
2022/05/08 03:48:53;;;;;;;;;;;;;;;15.87;100.00;98419.75;5080995;28;20015;-61
2022/05/08 03:51:19;;;;;;;;;;;;;;;15.87;100.00;98419.75;5077630;28;19925;-61
2022/05/08 03:53:45;;;;;;;;;;;;;;;15.90;100.00;98420.00;5077544;28;19925;-61
2022/05/08 03:56:13;;;;;;;;;;;;;;;15.79;100.00;98415.78;5080540;28;19935;-61
2022/05/08 03:58:39;;;;;;;;;;;;;;;15.78;100.00;98424.97;5081125;28;20395;-61
2022/05/08 04:01:06;;;;;;;;;;;;;;;15.60;100.00;98421.06;5079010;28;19927;-61
2022/05/08 04:03:32;;;;;;;;;;;;;;;15.66;100.00;98427.22;5077350;27;19929;-60
2022/05/08 04:05:58;;;;;;;;;;;;;;;15.69;100.00;98415.88;5078506;28;20012;-61
2022/05/08 04:08:25;;;;;;;;;;;;;;;15.76;100.00;98429.00;5080681;28;19995;-61
2022/05/08 04:10:51;;;;;;;;;;;;;;;15.60;100.00;98425.66;5081010;28;19924;-61
2022/05/08 04:13:19;;;;;;;;;;;;;;;15.28;100.00;98433.44;5073973;27;19984;-60
2022/05/08 04:18:29;;;;;;;;;;;;;;;15.30;100.00;98433.94;5070884;28;20733;-61
2022/05/08 04:20:55;;;;;;;;;;;;;;;15.33;100.00;98444.16;5077835;28;19925;-61
2022/05/08 04:26:06;;;;;;;;;;;;;;;15.38;100.00;98444.13;5078544;28;19924;-61
2022/05/08 04:28:33;;;;;;;;;;;;;;;15.34;100.00;98446.56;5077066;28;19976;-61
2022/05/08 04:31:00;;;;;;;;;;;;;;;15.32;100.00;98451.41;5078308;28;20004;-63
2022/05/08 04:33:26;;;;;;;;;;;;;;;15.29;100.00;98446.59;5080376;28;19924;-61
2022/05/08 04:35:52;;;;;;;;;;;;;;;15.22;100.00;98453.38;5080212;28;19935;-61
2022/05/08 04:38:19;;;;;;;;;;;;;;;15.26;100.00;98452.53;5076880;28;19929;-60
2022/05/08 04:40:45;;;;;;;;;;;;;;;14.86;100.00;98461.66;5077045;28;19980;-61
2022/05/08 04:43:11;;;;;;;;;;;;;;;15.12;100.00;98456.94;5088597;27;20059;-61
2022/05/08 04:45:39;;;;;;;;;;;;;;;15.29;100.00;98461.97;5076840;28;19921;-60
2022/05/08 04:48:06;;;;;;;;;;;;;;;15.35;100.00;98460.84;5075508;28;20004;-61
2022/05/08 04:50:32;;;;;;;;;;;;;;;15.45;100.00;98466.13;5050082;28;19961;-60
2022/05/08 04:52:58;;;;;;;;;;;;;;;15.47;100.00;98464.78;5069478;28;20019;-61
2022/05/08 04:55:24;;;;;;;;;;;;;;;15.40;100.00;98468.88;5080096;28;19971;-61
2022/05/08 04:57:51;;;;;;;;;;;;;;;15.20;100.00;98472.47;5080123;28;19985;-60
2022/05/08 05:00:18;;;;;;;;;;;;;;;15.26;100.00;98465.97;5068460;28;19931;-60
2022/05/08 05:02:45;;;;;;;;;;;;;;;15.16;100.00;98473.34;5076210;28;19925;-60
2022/05/08 05:05:11;;;;;;;;;;;;;;;15.26;100.00;98473.25;5078973;28;19928;-60
2022/05/08 05:07:39;;;;;;;;;;;;;;;15.22;100.00;98475.72;5079324;28;19980;-61
2022/05/08 05:10:06;;;;;;;;;;;;;;;15.27;100.00;98475.69;5077820;28;20321;-61
2022/05/08 05:12:32;;;;;;;;;;;;;;;15.37;100.00;98472.91;5085319;27;19971;-61
2022/05/08 05:15:00;;;;;;;;;;;;;;;15.46;100.00;98470.44;5078898;28;19988;-61
2022/05/08 05:17:26;;;;;;;;;;;;;;;15.52;100.00;98474.72;5076203;28;19992;-62
2022/05/08 05:19:54;;;;;;;;;;;;;;;15.50;100.00;98475.03;5076467;28;19931;-62
2022/05/08 05:22:21;;;;;;;;;;;;;;;15.33;100.00;98479.13;5079643;28;20016;-61
2022/05/08 05:24:47;;;;;;;;;;;;;;;15.37;100.00;98480.19;5079769;28;20408;-62
2022/05/08 05:27:14;;;;;;;;;;;;;;;15.34;100.00;98475.38;5076528;28;19925;-61
2022/05/08 05:29:40;;;;;;;;;;;;;;;15.23;100.00;98480.00;5076082;28;19983;-61
2022/05/08 05:32:07;;;;;;;;;;;;;;;14.91;100.00;98487.72;5078142;28;20000;-61
2022/05/08 05:34:33;;;;;;;;;;;;;;;14.64;100.00;98492.69;5079439;28;19930;-61
2022/05/08 05:37:01;;;;;;;;;;;;;;;14.85;100.00;98492.34;5078467;28;19927;-61
2022/05/08 05:39:27;;;;;;;;;;;;;;;14.73;100.00;98488.34;5076065;28;19931;-61
2022/05/08 05:41:53;;;;;;;;;;;;;;;14.38;100.00;98500.84;5080634;27;19924;-61
2022/05/08 05:44:19;;;;;;;;;;;;;;;14.75;100.00;98486.19;5079770;28;19996;-60
2022/05/08 05:49:30;;;;;;;;;;;;;;;14.53;100.00;98494.59;5069776;28;19956;-61
2022/05/08 05:51:56;;;;;;;;;;;;;;;14.71;100.00;98493.19;5076902;28;19988;-60
2022/05/08 05:54:24;;;;;;;;;;;;;;;14.98;100.00;98494.41;5079673;28;19946;-60
2022/05/08 05:56:50;;;;;;;;;;;;;;;14.90;100.00;98495.00;5079705;28;19924;-61
2022/05/08 05:59:17;;;;;;;;;;;;;;;14.68;100.00;98493.72;5067801;28;19992;-61
2022/05/08 06:01:44;;;;;;;;;;;;;;;14.65;100.00;98494.28;5075777;28;19925;-62
2022/05/08 06:04:10;;;;;;;;;;;;;;;14.68;100.00;98489.16;5078426;28;19991;-60
2022/05/08 06:06:37;;;;;;;;;;;;;;;14.91;100.00;98498.50;5079127;28;19931;-61
2022/05/08 06:09:04;;;;;;;;;;;;;;;15.02;100.00;98503.53;5077592;28;19990;-61
2022/05/08 06:11:32;;;;;;;;;;;;;;;15.09;100.00;98500.53;5075637;28;20513;-61
2022/05/08 06:13:58;;;;;;;;;;;;;;;15.03;100.00;98504.34;5080736;27;19927;-62
2022/05/08 06:16:24;;;;;;;;;;;;;;;15.22;100.00;98499.94;5078962;28;19925;-60
2022/05/08 06:18:50;;;;;;;;;;;;;;;15.25;100.00;98499.38;5082490;28;19932;-60
2022/05/08 06:21:17;;;;;;;;;;;;;;;15.40;100.00;98498.47;5070903;28;19972;-61
2022/05/08 06:23:43;;;;;;;;;;;;;;;15.47;100.00;98501.66;5079094;28;19925;-61
2022/05/08 06:26:09;;;;;;;;;;;;;;;15.47;100.00;98496.28;5081590;28;19953;-61
2022/05/08 06:28:37;;;;;;;;;;;;;;;15.59;100.00;98500.25;5082296;28;19935;-61
2022/05/08 06:31:03;;;;;;;;;;;;;;;15.70;100.00;98498.25;5080882;28;19951;-61
2022/05/08 06:33:30;;;;;;;;;;;;;;;15.66;100.00;98506.09;5079012;28;20015;-62
2022/05/08 06:35:56;;;;;;;;;;;;;;;15.71;100.00;98507.97;5079524;28;19996;-61
2022/05/08 06:38:22;;;;;;;;;;;;;;;15.37;100.00;98504.41;5082419;28;19927;-61
2022/05/08 06:40:49;;;;;;;;;;;;;;;15.13;100.00;98515.06;5082420;28;19984;-60
2022/05/08 06:43:15;;;;;;;;;;;;;;;15.06;100.00;98518.03;5083294;27;19925;-61
2022/05/08 06:45:43;;;;;;;;;;;;;;;15.26;100.00;98513.59;5078878;28;20019;-61
2022/05/08 06:48:10;;;;;;;;;;;;;;;15.39;100.00;98515.69;5081313;28;19925;-62
2022/05/08 06:50:36;;;;;;;;;;;;;;;15.34;100.00;98513.03;5082183;28;19959;-62
2022/05/08 06:53:04;;;;;;;;;;;;;;;15.32;100.00;98509.84;5080730;28;19967;-60
2022/05/08 06:55:30;;;;;;;;;;;;;;;15.46;100.00;98517.00;5078624;28;19971;-61
2022/05/08 06:57:57;;;;;;;;;;;;;;;15.41;100.00;98516.22;5079365;28;19928;-61
2022/05/08 07:03:08;;;;;;;;;;;;;;;15.22;100.00;98515.28;5079425;28;19944;-61
2022/05/08 07:05:36;;;;;;;;;;;;;;;15.12;100.00;98521.50;5078157;28;19924;-61
2022/05/08 07:08:02;;;;;;;;;;;;;;;15.32;100.00;98521.38;5079743;28;19925;-61
2022/05/08 07:10:28;;;;;;;;;;;;;;;15.53;100.00;98527.50;5081763;28;19968;-61
2022/05/08 07:12:56;;;;;;;;;;;;;;;15.64;100.00;98513.66;5085901;27;19924;-60
2022/05/08 07:15:22;;;;;;;;;;;;;;;15.71;100.00;98515.22;5078191;28;19925;-61
2022/05/08 07:17:49;;;;;;;;;;;;;;;15.73;100.00;98527.31;5078285;28;20384;-61
2022/05/08 07:20:16;;;;;;;;;;;;;;;15.75;100.00;98522.47;5081482;28;19925;-61
2022/05/08 07:22:43;;;;;;;;;;;;;;;15.74;100.00;98517.38;5081835;28;19952;-61
2022/05/08 07:25:11;;;;;;;;;;;;;;;15.84;100.00;98523.50;5079205;28;19996;-62
2022/05/08 07:27:39;;;;;;;;;;;;;;;15.55;100.00;98526.13;5078222;28;19981;-60
2022/05/08 07:30:06;;;;;;;;;;;;;;;15.51;100.00;98530.44;5079479;28;19928;-63
2022/05/08 07:32:33;;;;;;;;;;;;;;;15.59;100.00;98526.38;5081449;28;19977;-62
2022/05/08 07:37:45;;;;;;;;;;;;;;;15.80;100.00;98522.44;5078127;28;19967;-62
2022/05/08 07:40:12;;;;;;;;;;;;;;;15.93;100.00;98526.38;5080831;28;19931;-61
2022/05/08 07:42:38;;;;;;;;;;;;;;;15.95;100.00;98535.78;5085898;27;19930;-63
2022/05/08 07:45:05;;;;;;;;;;;;;;;15.99;100.00;98525.25;5079761;28;19992;-62
2022/05/08 07:47:31;;;;;;;;;;;;;;;16.11;100.00;98531.06;5077782;28;19968;-62
2022/05/08 07:49:57;;;;;;;;;;;;;;;16.06;100.00;98539.19;5078689;28;19924;-61
2022/05/08 07:52:24;;;;;;;;;;;;;;;15.93;100.00;98537.16;5081152;28;19976;-61
2022/05/08 07:54:51;;;;;;;;;;;;;;;15.78;100.00;98537.28;5081215;28;20001;-60
2022/05/08 07:57:18;;;;;;;;;;;;;;;15.76;100.00;98542.94;5069562;28;19948;-62
2022/05/08 07:59:44;;;;;;;;;;;;;;;15.78;100.00;98531.88;5077487;28;19999;-60
2022/05/08 08:02:10;;;;;;;;;;;;;;;15.90;100.00;98535.81;5079784;28;19925;-62
2022/05/08 08:04:37;;;;;;;;;;;;;;;15.90;100.00;98537.72;5080859;28;19928;-61
2022/05/08 08:07:03;;;;;;;;;;;;;;;15.98;100.00;98545.97;5079405;28;19959;-62
2022/05/08 08:09:29;;;;;;;;;;;;;;;15.91;100.00;98545.50;5077505;28;20423;-61
2022/05/08 08:11:57;;;;;;;;;;;;;;;15.93;100.00;98547.91;5082434;27;19931;-61
2022/05/08 08:14:23;;;;;;;;;;;;;;;15.94;100.00;98552.19;5080710;28;19991;-61
2022/05/08 08:16:50;;;;;;;;;;;;;;;15.94;100.00;98550.31;5080889;28;19921;-61
2022/05/08 08:19:16;;;;;;;;;;;;;;;16.02;100.00;98552.44;5077468;28;19925;-63
2022/05/08 08:21:42;;;;;;;;;;;;;;;16.14;100.00;98544.78;5077353;28;19980;-61
2022/05/08 08:24:09;;;;;;;;;;;;;;;16.27;100.00;98553.28;5079604;28;19956;-63
2022/05/08 08:26:36;;;;;;;;;;;;;;;16.32;100.00;98545.13;5080725;28;19924;-61
2022/05/08 08:29:03;;;;;;;;;;;;;;;16.37;100.00;98547.81;5079215;28;19945;-61
2022/05/08 08:31:30;;;;;;;;;;;;;;;16.47;100.00;98566.56;5077001;28;19984;-61
2022/05/08 08:33:58;;;;;;;;;;;;;;;16.40;100.00;98553.41;5077665;28;19993;-62
2022/05/08 08:36:24;;;;;;;;;;;;;;;16.45;100.00;98566.03;5080529;28;19924;-62
2022/05/08 08:38:51;;;;;;;;;;;;;;;16.42;100.00;98564.72;5080525;28;19991;-61
2022/05/08 08:41:20;;;;;;;;;;;;;;;16.40;100.00;98563.41;5067528;28;19949;-61
2022/05/08 08:49:19;;;;;;;;;;;;;;;16.62;100.00;98559.13;5080063;28;19941;-61
2022/05/08 08:51:46;;;;;;;;;;;;;;;16.57;100.00;98566.50;5080248;28;19925;-63
2022/05/08 08:54:12;;;;;;;;;;;;;;;16.60;100.00;98555.13;5077452;28;19929;-61
2022/05/08 08:56:39;;;;;;;;;;;;;;;16.74;100.00;98558.78;5076798;28;19931;-61
2022/05/08 08:59:05;;;;;;;;;;;;;;;16.69;100.00;98561.50;5078660;28;19964;-61
2022/05/08 09:01:40;;;;;;;;;;;;;;;16.66;100.00;98554.78;5080040;28;19924;-62
2022/05/08 09:04:06;;;;;;;;;;;;;;;16.82;100.00;98560.81;5077972;27;19930;-62
2022/05/08 09:06:40;;;;;;;;;;;;;;;16.79;100.00;98563.28;5076734;28;19925;-61
2022/05/08 09:09:22;;;;;;;;;;;;;;;16.86;100.00;98567.25;5078426;27;19929;-61
2022/05/08 09:11:49;;;;;;;;;;;;;;;16.98;100.00;98570.34;5081720;27;19925;-61
2022/05/08 09:14:27;;;;;;;;;;;;;;;17.01;100.00;98569.78;5080958;27;19924;-62
2022/05/08 09:16:55;;;;;;;;;;;;;;;16.90;100.00;98562.06;5079731;28;19936;-61
2022/05/08 09:19:29;;;;;;;;;;;;;;;16.87;100.00;98573.44;5076341;28;19932;-62
2022/05/08 09:21:58;;;;;;;;;;;;;;;16.91;100.00;98561.78;5076624;28;20560;-62
2022/05/08 09:24:24;;;;;;;;;;;;;;;16.88;100.00;98566.97;5079816;28;20020;-63
2022/05/08 09:26:51;;;;;;;;;;;;;;;16.79;100.00;98564.09;5079944;28;19996;-61
2022/05/08 09:29:21;;;;;;;;;;;;;;;17.02;100.00;98565.19;5068454;28;19956;-61
2022/05/08 09:31:47;;;;;;;;;;;;;;;16.97;100.00;98566.03;5076384;28;19931;-64
2022/05/08 09:34:15;;;;;;;;;;;;;;;17.10;100.00;98562.63;5079514;28;19925;-61
2022/05/08 09:36:42;;;;;;;;;;;;;;;17.06;100.00;98566.19;5079974;28;19993;-63
2022/05/08 09:39:08;;;;;;;;;;;;;;;17.03;100.00;98562.19;5077386;28;19931;-62
2022/05/08 09:41:36;;;;;;;;;;;;;;;17.19;100.00;98563.59;5076414;28;19993;-62
2022/05/08 09:44:09;;;;;;;;;;;;;;;17.33;100.00;98576.41;5082526;27;19924;-61
2022/05/08 09:46:36;;;;;;;;;;;;;;;17.38;100.00;98569.03;5079469;28;19971;-62
2022/05/08 09:49:03;;;;;;;;;;;;;;;17.42;100.00;98567.34;5078067;28;20004;-62
2022/05/08 09:51:33;;;;;;;;;;;;;;;17.53;100.00;98560.72;5076080;28;19967;-64
2022/05/08 09:54:00;;;;;;;;;;;;;;;17.51;100.00;98562.91;5077181;28;19988;-60
2022/05/08 09:56:26;;;;;;;;;;;;;;;17.63;100.00;98557.91;5079568;28;19972;-61
2022/05/08 09:58:52;;;;;;;;;;;;;;;17.64;100.00;98556.00;5079281;28;19931;-60
2022/05/08 10:01:19;;;;;;;;;;;;;;;17.57;100.00;98552.88;5075697;28;20528;-60
2022/05/08 10:03:46;;;;;;;;;;;;;;;17.56;100.00;98560.16;5075534;28;19988;-62
2022/05/08 10:06:13;;;;;;;;;;;;;;;17.47;100.00;98561.06;5078848;28;19928;-62
2022/05/08 10:08:43;;;;;;;;;;;;;;;17.39;100.00;98556.34;5079368;28;19931;-63
2022/05/08 10:13:55;;;;;;;;;;;;;;;17.70;100.00;98557.53;5080516;27;19924;-62
2022/05/08 10:16:42;;;;;;;;;;;;;;;17.74;100.00;98555.84;5079000;28;19980;-63
2022/05/08 10:19:27;;;;;;;;;;;;;;;17.69;100.00;98558.63;5076758;28;19928;-60
2022/05/08 10:22:03;;;;;;;;;;;;;;;18.00;100.00;98553.53;5075550;28;19963;-62
2022/05/08 10:24:31;;;;;;;;;;;;;;;17.73;100.00;98555.03;5078825;28;19925;-62
2022/05/08 10:27:11;;;;;;;;;;;;;;;18.09;100.00;98552.56;5078118;28;19931;-62
2022/05/08 10:29:38;;;;;;;;;;;;;;;18.00;100.00;98543.53;5057670;28;19921;-63
2022/05/08 10:32:06;;;;;;;;;;;;;;;18.05;100.00;98554.25;5076885;28;19989;-63
2022/05/08 10:34:33;;;;;;;;;;;;;;;18.23;100.00;98549.88;5078854;28;19932;-61
2022/05/08 10:37:19;;;;;;;;;;;;;;;18.31;100.00;98543.81;5077886;28;19967;-62
2022/05/08 10:39:47;;;;;;;;;;;;;;;18.49;100.00;98545.69;5075299;28;19925;-62
2022/05/08 10:42:29;;;;;;;;;;;;;;;18.41;100.00;98532.03;5082947;27;19948;-62
2022/05/08 10:44:56;;;;;;;;;;;;;;;18.12;100.00;98540.38;5077530;28;19927;-61
2022/05/08 10:47:43;;;;;;;;;;;;;;;18.32;100.00;98532.69;5075215;28;20584;-62
2022/05/08 10:50:11;;;;;;;;;;;;;;;17.90;100.00;98537.47;5069800;28;19981;-62
2022/05/08 10:52:39;;;;;;;;;;;;;;;18.21;100.00;98539.38;5075198;28;19940;-64
2022/05/08 10:55:08;;;;;;;;;;;;;;;18.43;100.00;98529.81;5076861;28;19925;-63
2022/05/08 10:57:35;;;;;;;;;;;;;;;18.47;100.00;98525.41;5078418;28;19966;-61
2022/05/08 11:00:03;;;;;;;;;;;;;;;18.50;100.00;98527.56;5077125;28;19925;-62
2022/05/08 11:02:39;;;;;;;;;;;;;;;18.59;100.00;98531.16;5074755;27;19931;-62
2022/05/08 11:05:05;;;;;;;;;;;;;;;18.49;100.00;98523.19;5079029;28;19925;-61
2022/05/08 11:07:32;;;;;;;;;;;;;;;18.41;100.00;98532.03;5081608;28;19956;-63
2022/05/08 11:09:58;;;;;;;;;;;;;;;18.40;100.00;98522.28;5081100;28;19925;-64
2022/05/08 11:12:26;;;;;;;;;;;;;;;18.53;100.00;98516.13;5086752;27;19924;-62
2022/05/08 11:15:06;;;;;;;;;;;;;;;18.23;100.00;98510.16;5081505;28;19959;-63
2022/05/08 11:17:33;;;;;;;;;;;;;;;18.51;100.00;98515.59;5078401;28;19980;-61
2022/05/08 11:19:59;;;;;;;;;;;;;;;18.71;100.00;98516.03;5079130;28;19932;-62
2022/05/08 11:22:25;;;;;;;;;;;;;;;18.72;100.00;98514.16;5081394;28;19936;-62
2022/05/08 11:24:52;;;;;;;;;;;;;;;18.46;100.00;98515.69;5081593;28;19925;-62
2022/05/08 11:27:18;;;;;;;;;;;;;;;18.80;100.00;98508.00;5069976;28;20412;-61
2022/05/08 11:29:49;;;;;;;;;;;;;;;18.56;100.00;98508.22;5078270;28;20016;-62
2022/05/08 11:37:59;;;;;;;;;;;;;;;18.97;100.00;98510.91;5078023;28;19928;-62
2022/05/08 11:40:26;;;;;;;;;;;;;;;19.10;100.00;98515.50;5081260;28;19992;-62
2022/05/08 11:42:52;;;;;;;;;;;;;;;19.06;100.00;98511.00;5086321;27;19967;-62
2022/05/08 11:45:20;;;;;;;;;;;;;;;19.18;100.00;98503.16;5077711;28;19924;-61
2022/05/08 11:47:50;;;;;;;;;;;;;;;19.18;100.00;98505.88;5077712;28;19924;-62
2022/05/08 11:50:16;;;;;;;;;;;;;;;19.40;100.00;98512.13;5077778;28;19925;-61
2022/05/08 11:52:42;;;;;;;;;;;;;;;19.33;100.00;98511.75;5077839;28;19924;-62
2022/05/08 11:55:09;;;;;;;;;;;;;;;19.23;100.00;98506.56;5079631;28;19920;-61
2022/05/08 11:57:41;;;;;;;;;;;;;;;19.29;100.00;98499.91;5081028;28;20015;-62
2022/05/08 12:00:08;;;;;;;;;;;;;;;18.94;100.00;98500.69;5078975;28;19991;-61
2022/05/08 12:02:40;;;;;;;;;;;;;;;19.29;100.00;98499.91;5077189;28;19942;-62
2022/05/08 12:05:07;;;;;;;;;;;;;;;19.42;100.00;98500.22;5079760;28;19932;-62
2022/05/08 12:07:45;;;;;;;;;;;;;;;19.49;100.00;98493.28;5080973;28;19935;-63
2022/05/08 12:10:12;;;;;;;;;;;;;;;19.49;98.20;98495.19;5078340;28;19924;-63
2022/05/08 12:12:39;;;;;;;;;;;;;;;19.35;98.61;98495.97;5087978;27;19996;-62
2022/05/08 12:15:17;;;;;;;;;;;;;;;19.45;99.21;98496.88;5078963;28;19925;-61
2022/05/08 12:17:58;;;;;;;;;;;;;;;19.57;99.56;98491.72;5077415;28;19929;-62
2022/05/08 12:20:26;;;;;;;;;;;;;;;19.67;98.14;98491.50;5069876;28;19925;-61
2022/05/08 12:23:03;;;;;;;;;;;;;;;19.60;100.00;98491.13;5077402;28;19928;-64
2022/05/08 12:25:30;;;;;;;;;;;;;;;19.55;98.15;98483.91;5070475;28;19950;-63
2022/05/08 12:27:56;;;;;;;;;;;;;;;19.66;95.00;98492.59;5077555;28;19929;-62
2022/05/08 12:30:22;;;;;;;;;;;;;;;19.62;95.77;98489.69;5080484;28;19987;-62
2022/05/08 12:32:49;;;;;;;;;;;;;;;19.69;94.61;98492.78;5080397;28;19932;-62
2022/05/08 12:35:16;;;;;;;;;;;;;;;19.83;91.80;98482.69;5077122;28;19960;-63
2022/05/08 12:37:43;;;;;;;;;;;;;;;19.38;98.83;98489.16;5076939;28;19921;-62
2022/05/08 12:40:09;;;;;;;;;;;;;;;19.66;94.93;98485.25;5079302;28;19925;-64
2022/05/08 12:42:36;;;;;;;;;;;;;;;19.47;94.37;98489.25;5085251;27;19925;-62
2022/05/08 12:45:02;;;;;;;;;;;;;;;19.72;93.63;98478.63;5079212;28;19927;-62
2022/05/08 12:47:29;;;;;;;;;;;;;;;19.84;95.23;98472.63;5077297;28;19984;-61
2022/05/08 12:49:55;;;;;;;;;;;;;;;19.83;96.35;98476.47;5077606;28;19924;-63
2022/05/08 12:52:23;;;;;;;;;;;;;;;20.08;96.42;98478.53;5080371;28;20003;-63
2022/05/08 12:54:49;;;;;;;;;;;;;;;20.05;99.75;98473.72;5080438;28;19935;-61
2022/05/08 12:59:42;;;;;;;;;;;;;;;20.18;97.07;98478.25;5077051;28;19929;-61
2022/05/08 13:00:03;;;;;;;;;;;;;;;20.23;96.21;98475.44;5077677;28;19920;-63
2022/05/08 13:02:29;;;;;;;;;;;;;;;20.24;92.37;98468.88;5079493;27;19932;-61
2022/05/08 13:04:55;;;;;;;;;;;;;;;20.27;88.57;98470.22;5079500;28;19930;-62
2022/05/08 13:07:23;;;;;;;;;;;;;;;20.24;90.17;98474.28;5076539;28;19971;-62
2022/05/08 13:09:50;;;;;;;;;;;;;;;20.31;86.03;98474.69;5076504;28;20013;-61